Time;durP1;ratioP1;P1;durP2;ratioP2;P2;SDS_P1;SDS_P2;PMS_P1;PMS_P2;Temp;Humidity;BMP_temperature;BMP_pressure;BME280_temperature;BME280_humidity;BME280_pressure;Samples;Min_cycle;Max_cycle;Signal;HPM_P1;HPM_P2
2021/07/12 00:00:45;;;;;;;;;6.00;5.00;;;;;;;;5048405;28;47278;-79
2021/07/12 00:03:10;;;;;;;;;5.67;5.67;;;;;;;;5051379;28;45599;-79
2021/07/12 00:05:35;;;;;;;;;5.00;5.00;;;;;;;;5052401;28;45375;-79
2021/07/12 00:08:00;;;;;;;;;5.75;5.00;;;;;;;;5053343;28;45366;-79
2021/07/12 00:10:26;;;;;;;;;4.33;4.33;;;;;;;;5062057;28;45508;-79
2021/07/12 00:12:52;;;;;;;;;5.00;4.75;;;;;;;;5055627;27;45844;-79
2021/07/12 00:15:18;;;;;;;;;4.25;4.25;;;;;;;;5058808;28;45311;-79
2021/07/12 00:17:46;;;;;;;;;6.25;5.00;;;;;;;;5055799;28;45443;-79
2021/07/12 00:20:12;;;;;;;;;5.00;5.00;;;;;;;;5055129;27;45502;-79
2021/07/12 00:22:38;;;;;;;;;5.25;5.00;;;;;;;;5056066;28;45374;-78
2021/07/12 00:25:05;;;;;;;;;6.00;6.00;;;;;;;;5053326;28;45629;-78
2021/07/12 00:27:30;;;;;;;;;6.50;6.50;;;;;;;;5053778;28;45506;-79
2021/07/12 00:29:57;;;;;;;;;6.00;6.00;;;;;;;;5053375;28;45629;-79
2021/07/12 00:32:22;;;;;;;;;6.00;5.50;;;;;;;;5053718;28;45717;-79
2021/07/12 00:34:47;;;;;;;;;7.00;7.00;;;;;;;;5060844;28;45635;-79
2021/07/12 00:37:12;;;;;;;;;13.00;8.33;;;;;;;;5059648;28;45665;-79
2021/07/12 00:39:38;;;;;;;;;10.00;7.00;;;;;;;;5058931;28;45585;-79
2021/07/12 00:42:03;;;;;;;;;8.50;8.00;;;;;;;;5061096;28;45495;-80
2021/07/12 00:44:29;;;;;;;;;6.75;6.00;;;;;;;;5056229;27;45390;-79
2021/07/12 00:46:55;;;;;;;;;5.75;5.75;;;;;;;;5055317;28;45523;-79
2021/07/12 00:49:20;;;;;;;;;7.00;7.00;;;;;;;;5054657;28;45441;-79
2021/07/12 00:51:45;;;;;;;;;7.25;7.25;;;;;;;;5054854;28;45420;-79
2021/07/12 00:54:10;;;;;;;;;5.67;5.67;;;;;;;;5054155;28;45327;-78
2021/07/12 00:56:36;;;;;;;;;6.67;6.67;;;;;;;;5058990;28;45573;-79
2021/07/12 00:59:01;;;;;;;;;8.50;7.00;;;;;;;;5054665;28;47644;-79
2021/07/12 01:01:29;;;;;;;;;9.00;5.67;;;;;;;;5062396;28;45310;-79
2021/07/12 01:03:54;;;;;;;;;7.50;7.50;;;;;;;;5060318;27;45248;-78
2021/07/12 01:06:20;;;;;;;;;8.00;6.25;;;;;;;;5071410;27;45462;-78
2021/07/12 01:08:45;;;;;;;;;6.00;6.00;;;;;;;;5052774;28;46152;-77
2021/07/12 01:11:10;;;;;;;;;8.33;7.00;;;;;;;;5052406;28;45446;-80
2021/07/12 01:13:48;;;;;;;;;6.33;6.00;;;;;;;;5057295;28;45346;-80
2021/07/12 01:16:18;;;;;;;;;7.25;7.25;;;;;;;;5054640;27;45409;-80
2021/07/12 01:19:08;;;;;;;;;10.75;8.00;;;;;;;;5053878;28;45501;-79
2021/07/12 01:22:00;;;;;;;;;10.00;9.50;;;;;;;;5064831;27;45756;-79
2021/07/12 01:24:44;;;;;;;;;8.75;8.75;;;;;;;;5060767;27;45554;-80
2021/07/12 01:27:37;;;;;;;;;6.75;6.75;;;;;;;;5047563;28;48916;-79
2021/07/12 01:30:08;;;;;;;;;6.00;6.00;;;;;;;;5051115;28;45894;-80
2021/07/12 01:32:44;;;;;;;;;5.75;5.25;;;;;;;;5051861;28;45779;-79
2021/07/12 01:35:21;;;;;;;;;8.50;7.75;;;;;;;;5055748;28;45626;-79
2021/07/12 01:38:01;;;;;;;;;7.25;5.75;;;;;;;;5054879;28;45580;-81
2021/07/12 01:40:46;;;;;;;;;5.75;5.00;;;;;;;;5055564;28;46030;-78
2021/07/12 01:43:32;;;;;;;;;8.75;7.50;;;;;;;;5056017;28;45479;-80
2021/07/12 01:46:24;;;;;;;;;8.00;8.00;;;;;;;;5051372;28;45536;-80
2021/07/12 01:49:04;;;;;;;;;9.25;6.25;;;;;;;;5051955;28;45541;-79
2021/07/12 01:51:32;;;;;;;;;7.75;5.00;;;;;;;;5052606;28;46580;-80
2021/07/12 01:54:03;;;;;;;;;8.25;7.25;;;;;;;;5052328;28;45528;-78
2021/07/12 01:56:31;;;;;;;;;7.25;6.25;;;;;;;;5052589;28;45557;-78
2021/07/12 01:59:14;;;;;;;;;5.25;5.25;;;;;;;;5057508;28;45488;-80
2021/07/12 02:01:40;;;;;;;;;6.50;6.25;;;;;;;;5056584;28;46319;-79
2021/07/12 02:04:05;;;;;;;;;7.50;7.25;;;;;;;;5056912;28;45641;-80
2021/07/12 02:06:38;;;;;;;;;6.00;6.00;;;;;;;;5059432;28;45547;-79
2021/07/12 02:09:04;;;;;;;;;14.00;7.50;;;;;;;;5052302;27;46230;-79
2021/07/12 02:11:30;;;;;;;;;11.00;8.00;;;;;;;;5049593;28;45605;-79
2021/07/12 02:13:56;;;;;;;;;8.75;7.75;;;;;;;;5060755;28;45484;-79
2021/07/12 02:16:21;;;;;;;;;6.00;6.00;;;;;;;;5059002;28;45343;-79
2021/07/12 02:18:49;;;;;;;;;5.75;5.75;;;;;;;;5053533;28;45752;-79
2021/07/12 02:21:15;;;;;;;;;7.00;7.00;;;;;;;;5053464;28;45828;-78
2021/07/12 02:23:41;;;;;;;;;6.00;6.00;;;;;;;;5052693;28;45520;-79
2021/07/12 02:26:09;;;;;;;;;7.00;7.00;;;;;;;;5051251;28;45608;-79
2021/07/12 02:28:34;;;;;;;;;9.00;7.00;;;;;;;;5054047;28;45456;-78
2021/07/12 02:31:00;;;;;;;;;8.00;7.25;;;;;;;;5057120;28;46362;-79
2021/07/12 02:33:26;;;;;;;;;7.00;7.00;;;;;;;;5057571;27;45482;-79
2021/07/12 02:35:53;;;;;;;;;9.25;6.75;;;;;;;;5055505;28;45541;-78
2021/07/12 02:38:18;;;;;;;;;7.50;6.75;;;;;;;;5063133;28;45573;-79
2021/07/12 02:40:44;;;;;;;;;7.25;6.50;;;;;;;;5054368;28;45484;-79
2021/07/12 02:43:10;;;;;;;;;9.50;8.75;;;;;;;;5056995;28;45466;-79
2021/07/12 02:45:37;;;;;;;;;6.75;6.00;;;;;;;;5052582;27;45431;-79
2021/07/12 02:48:02;;;;;;;;;9.50;8.50;;;;;;;;5049328;28;45665;-79
2021/07/12 02:50:28;;;;;;;;;6.75;6.25;;;;;;;;5055340;28;45508;-79
2021/07/12 02:53:12;;;;;;;;;7.50;5.00;;;;;;;;5064283;28;45306;-79
2021/07/12 02:55:37;;;;;;;;;9.00;7.50;;;;;;;;5060066;28;45525;-79
2021/07/12 02:58:02;;;;;;;;;9.00;7.00;;;;;;;;5052828;28;45652;-79
2021/07/12 03:00:28;;;;;;;;;7.50;7.50;;;;;;;;5050400;28;45532;-80
2021/07/12 03:02:53;;;;;;;;;7.00;7.00;;;;;;;;5061697;28;45474;-79
2021/07/12 03:05:18;;;;;;;;;12.00;8.25;;;;;;;;5052005;28;45692;-79
2021/07/12 03:07:49;;;;;;;;;8.50;7.50;;;;;;;;5059981;28;45368;-79
2021/07/12 03:10:16;;;;;;;;;10.00;6.00;;;;;;;;5056918;28;45622;-79
2021/07/12 03:12:51;;;;;;;;;10.25;7.75;;;;;;;;5056581;27;45825;-80
2021/07/12 03:15:18;;;;;;;;;9.50;9.50;;;;;;;;5059867;27;45511;-79
2021/07/12 03:17:46;;;;;;;;;7.00;7.00;;;;;;;;5051516;28;45488;-80
2021/07/12 03:20:13;;;;;;;;;7.75;7.00;;;;;;;;5052443;28;45513;-79
2021/07/12 03:22:39;;;;;;;;;10.00;7.00;;;;;;;;5055157;28;45417;-80
2021/07/12 03:25:05;;;;;;;;;7.75;7.00;;;;;;;;5046487;28;48429;-79
2021/07/12 03:27:31;;;;;;;;;7.25;7.25;;;;;;;;5052623;28;45603;-80
2021/07/12 03:29:59;;;;;;;;;7.00;6.50;;;;;;;;5051408;28;46114;-79
2021/07/12 03:32:27;;;;;;;;;5.75;5.50;;;;;;;;5050676;28;45608;-80
2021/07/12 03:34:53;;;;;;;;;7.00;7.00;;;;;;;;5053664;28;45507;-81
2021/07/12 03:37:22;;;;;;;;;4.50;4.50;;;;;;;;5059922;28;45412;-80
2021/07/12 03:39:48;;;;;;;;;6.00;6.00;;;;;;;;5058974;27;47061;-80
2021/07/12 03:42:13;;;;;;;;;6.00;5.00;;;;;;;;5054663;28;45692;-80
2021/07/12 03:44:39;;;;;;;;;9.75;6.50;;;;;;;;5059041;28;45383;-79
2021/07/12 03:47:04;;;;;;;;;6.00;4.25;;;;;;;;5059023;28;45476;-78
2021/07/12 03:49:30;;;;;;;;;4.25;3.00;;;;;;;;5063209;28;46120;-79
2021/07/12 03:51:55;;;;;;;;;6.00;3.67;;;;;;;;5054780;28;45534;-79
2021/07/12 03:54:20;;;;;;;;;8.00;4.25;;;;;;;;5056617;28;45474;-79
2021/07/12 03:56:46;;;;;;;;;5.50;4.25;;;;;;;;5054204;28;45448;-79
2021/07/12 03:59:11;;;;;;;;;4.00;4.00;;;;;;;;5054552;28;45657;-79
2021/07/12 04:01:39;;;;;;;;;4.75;4.50;;;;;;;;5063785;28;45338;-78
2021/07/12 04:04:05;;;;;;;;;4.00;4.00;;;;;;;;5058515;28;45730;-78
2021/07/12 04:06:30;;;;;;;;;4.00;4.00;;;;;;;;5054093;28;45507;-80
2021/07/12 04:08:56;;;;;;;;;5.25;4.00;;;;;;;;5062305;27;46482;-79
2021/07/12 04:11:29;;;;;;;;;4.25;3.25;;;;;;;;5053700;28;45620;-79
2021/07/12 04:13:54;;;;;;;;;5.00;5.00;;;;;;;;5060896;28;45410;-79
2021/07/12 04:16:19;;;;;;;;;3.00;3.00;;;;;;;;5069370;27;45639;-79
2021/07/12 04:18:44;;;;;;;;;4.00;4.00;;;;;;;;5055169;28;45470;-79
2021/07/12 04:21:11;;;;;;;;;4.33;3.00;;;;;;;;5056556;28;45372;-78
2021/07/12 04:23:36;;;;;;;;;4.00;4.00;;;;;;;;5057635;28;45528;-79
2021/07/12 04:26:01;;;;;;;;;5.25;4.00;;;;;;;;5061017;28;45420;-77
2021/07/12 04:28:26;;;;;;;;;5.25;4.00;;;;;;;;5061764;28;45899;-77
2021/07/12 04:30:52;;;;;;;;;4.00;4.00;;;;;;;;5056238;28;45545;-80
2021/07/12 04:33:17;;;;;;;;;4.00;4.00;;;;;;;;5061023;27;45469;-80
2021/07/12 04:35:42;;;;;;;;;4.00;3.00;;;;;;;;5053012;28;45411;-80
2021/07/12 04:38:07;;;;;;;;;5.00;4.00;;;;;;;;5061927;28;45515;-80
2021/07/12 04:40:34;;;;;;;;;4.00;4.00;;;;;;;;5059111;28;45491;-81
2021/07/12 04:42:59;;;;;;;;;5.00;4.50;;;;;;;;5053637;28;45458;-80
2021/07/12 04:45:27;;;;;;;;;5.00;4.00;;;;;;;;5052342;28;45553;-80
2021/07/12 04:47:52;;;;;;;;;2.00;2.00;;;;;;;;5060096;28;46234;-81
2021/07/12 04:50:17;;;;;;;;;4.00;4.00;;;;;;;;5059187;28;45331;-80
2021/07/12 04:52:43;;;;;;;;;5.00;5.00;;;;;;;;5058530;28;45555;-80
2021/07/12 04:55:09;;;;;;;;;5.00;5.00;;;;;;;;5057191;28;45454;-80
2021/07/12 04:57:35;;;;;;;;;4.00;4.00;;;;;;;;5053423;27;46485;-80
2021/07/12 05:00:01;;;;;;;;;4.75;4.50;;;;;;;;5059505;28;45772;-80
2021/07/12 05:02:27;;;;;;;;;4.25;4.25;;;;;;;;5052007;28;49103;-78
2021/07/12 05:04:52;;;;;;;;;4.00;4.00;;;;;;;;5056786;28;45638;-79
2021/07/12 05:07:17;;;;;;;;;6.00;4.67;;;;;;;;5053954;28;46181;-79
2021/07/12 05:09:42;;;;;;;;;4.00;4.00;;;;;;;;5054714;28;45628;-78
2021/07/12 05:12:11;;;;;;;;;4.33;4.33;;;;;;;;5058058;28;45471;-79
2021/07/12 05:14:37;;;;;;;;;4.75;4.75;;;;;;;;5059275;28;45601;-80
2021/07/12 05:17:03;;;;;;;;;3.50;3.00;;;;;;;;5054405;28;45284;-80
2021/07/12 05:19:28;;;;;;;;;4.25;4.25;;;;;;;;5055972;28;45495;-79
2021/07/12 05:21:53;;;;;;;;;4.00;4.00;;;;;;;;5054067;28;45458;-80
2021/07/12 05:24:19;;;;;;;;;3.33;3.33;;;;;;;;5054146;28;45298;-79
2021/07/12 05:26:44;;;;;;;;;7.50;4.25;;;;;;;;5056245;28;47336;-79
2021/07/12 05:29:10;;;;;;;;;6.00;4.75;;;;;;;;5058984;28;45439;-79
2021/07/12 05:31:35;;;;;;;;;3.00;3.00;;;;;;;;5054808;28;45643;-79
2021/07/12 05:34:00;;;;;;;;;5.00;3.75;;;;;;;;5056376;28;45509;-79
2021/07/12 05:36:26;;;;;;;;;5.75;5.00;;;;;;;;5053916;27;46460;-79
2021/07/12 05:38:51;;;;;;;;;4.00;4.00;;;;;;;;5064252;28;45567;-80
2021/07/12 05:41:16;;;;;;;;;4.25;4.25;;;;;;;;5053123;28;45361;-79
2021/07/12 05:43:41;;;;;;;;;4.00;4.00;;;;;;;;5056857;28;45461;-79
2021/07/12 05:46:07;;;;;;;;;7.00;5.00;;;;;;;;5053706;28;46112;-79
2021/07/12 05:48:32;;;;;;;;;8.50;5.00;;;;;;;;5053670;28;45502;-79
2021/07/12 05:50:58;;;;;;;;;5.25;4.00;;;;;;;;5061478;28;45518;-79
2021/07/12 05:53:23;;;;;;;;;4.25;4.25;;;;;;;;5052445;28;45252;-79
2021/07/12 05:55:48;;;;;;;;;4.25;4.25;;;;;;;;5060067;28;45225;-79
2021/07/12 05:58:14;;;;;;;;;4.50;4.50;;;;;;;;5052744;28;45315;-79
2021/07/12 06:00:39;;;;;;;;;7.00;4.25;;;;;;;;5051923;28;48488;-79
2021/07/12 06:03:04;;;;;;;;;7.00;6.00;;;;;;;;5058038;27;45533;-79
2021/07/12 06:05:30;;;;;;;;;7.00;6.00;;;;;;;;5046843;28;45520;-79
2021/07/12 06:07:55;;;;;;;;;8.25;6.00;;;;;;;;5056424;28;45534;-80
2021/07/12 06:10:20;;;;;;;;;7.00;5.00;;;;;;;;5053501;28;45395;-80
2021/07/12 06:12:45;;;;;;;;;7.00;5.00;;;;;;;;5051082;28;45418;-80
2021/07/12 06:15:10;;;;;;;;;4.67;4.67;;;;;;;;5050490;28;45984;-80
2021/07/12 06:17:36;;;;;;;;;5.00;4.00;;;;;;;;5051151;28;45424;-81
2021/07/12 06:20:02;;;;;;;;;4.50;4.50;;;;;;;;5052296;28;45421;-80
2021/07/12 06:22:28;;;;;;;;;4.25;4.00;;;;;;;;5058914;28;45517;-80
2021/07/12 06:24:53;;;;;;;;;4.75;4.00;;;;;;;;5051137;28;46548;-80
2021/07/12 06:27:19;;;;;;;;;6.00;6.00;;;;;;;;5049895;28;45719;-80
2021/07/12 06:29:44;;;;;;;;;5.00;4.00;;;;;;;;5049546;28;45492;-80
2021/07/12 06:32:09;;;;;;;;;4.33;4.33;;;;;;;;5051566;28;45764;-79
2021/07/12 06:34:34;;;;;;;;;4.00;3.33;;;;;;;;5049617;28;45480;-81
2021/07/12 06:37:00;;;;;;;;;5.00;5.00;;;;;;;;5050154;28;45549;-79
2021/07/12 06:39:25;;;;;;;;;5.75;5.75;;;;;;;;5050109;28;45644;-79
2021/07/12 06:41:50;;;;;;;;;4.67;4.00;;;;;;;;5050491;28;45579;-80
2021/07/12 06:44:15;;;;;;;;;4.33;4.00;;;;;;;;5050910;28;46127;-80
2021/07/12 06:46:41;;;;;;;;;4.00;4.00;;;;;;;;5053297;28;45374;-79
2021/07/12 06:49:06;;;;;;;;;4.33;4.33;;;;;;;;5051405;28;45536;-81
2021/07/12 06:51:31;;;;;;;;;5.75;4.75;;;;;;;;5050303;28;45891;-81
2021/07/12 06:53:56;;;;;;;;;4.00;4.00;;;;;;;;5051512;28;46594;-80
2021/07/12 06:56:22;;;;;;;;;4.00;4.00;;;;;;;;5060280;28;45645;-80
2021/07/12 06:58:48;;;;;;;;;3.75;3.00;;;;;;;;5065318;28;45481;-80
2021/07/12 07:01:13;;;;;;;;;4.00;4.00;;;;;;;;5057605;28;45642;-80
2021/07/12 07:03:38;;;;;;;;;4.33;4.00;;;;;;;;5057616;28;46175;-79
2021/07/12 07:06:03;;;;;;;;;5.00;3.33;;;;;;;;5055032;28;45404;-80
2021/07/12 07:08:29;;;;;;;;;5.75;4.50;;;;;;;;5055025;28;45545;-79
2021/07/12 07:10:54;;;;;;;;;5.33;4.00;;;;;;;;5063071;28;45647;-80
2021/07/12 07:13:19;;;;;;;;;3.00;3.00;;;;;;;;5049971;28;47233;-80
2021/07/12 07:15:45;;;;;;;;;3.67;3.33;;;;;;;;5049610;28;45665;-79
2021/07/12 07:18:10;;;;;;;;;5.25;3.75;;;;;;;;5043235;28;45436;-79
2021/07/12 07:20:36;;;;;;;;;3.25;3.25;;;;;;;;5050910;28;45416;-81
2021/07/12 07:23:01;;;;;;;;;7.25;4.50;;;;;;;;5050271;28;46318;-79
2021/07/12 07:25:27;;;;;;;;;5.00;4.00;;;;;;;;5051502;28;45668;-80
2021/07/12 07:27:52;;;;;;;;;4.00;3.00;;;;;;;;5051856;28;45322;-80
2021/07/12 07:30:17;;;;;;;;;5.33;5.33;;;;;;;;5050375;28;45485;-80
2021/07/12 07:32:43;;;;;;;;;5.50;3.00;;;;;;;;5048609;28;45473;-80
2021/07/12 07:35:08;;;;;;;;;3.00;3.00;;;;;;;;5048476;28;45631;-80
2021/07/12 07:37:34;;;;;;;;;3.50;3.50;;;;;;;;5051899;28;45748;-80
2021/07/12 07:39:59;;;;;;;;;5.50;3.50;;;;;;;;5048276;28;45556;-80
2021/07/12 07:42:25;;;;;;;;;6.00;4.00;;;;;;;;5048834;28;46593;-80
2021/07/12 07:44:50;;;;;;;;;3.50;3.50;;;;;;;;5049846;28;45533;-79
2021/07/12 07:47:16;;;;;;;;;4.00;3.00;;;;;;;;5041918;28;45556;-80
2021/07/12 07:49:41;;;;;;;;;5.25;3.50;;;;;;;;5056308;28;45387;-80
2021/07/12 07:52:07;;;;;;;;;3.33;3.33;;;;;;;;5049041;28;47937;-80
2021/07/12 07:54:32;;;;;;;;;2.25;2.25;;;;;;;;5051282;28;45449;-82
2021/07/12 07:56:57;;;;;;;;;5.75;3.50;;;;;;;;5045441;27;45495;-80
2021/07/12 07:59:23;;;;;;;;;4.00;3.67;;;;;;;;5041190;28;46038;-80
2021/07/12 08:01:48;;;;;;;;;3.00;3.00;;;;;;;;5050448;28;46245;-80
2021/07/12 08:04:13;;;;;;;;;4.50;4.00;;;;;;;;5053269;28;45497;-81
2021/07/12 08:06:39;;;;;;;;;7.00;3.00;;;;;;;;5043949;28;45424;-80
2021/07/12 08:09:04;;;;;;;;;4.67;4.00;;;;;;;;5046814;28;45387;-80
2021/07/12 08:11:31;;;;;;;;;5.00;3.75;;;;;;;;5036512;28;46204;-80
2021/07/12 08:13:56;;;;;;;;;4.25;4.25;;;;;;;;5033796;28;45415;-80
2021/07/12 08:16:21;;;;;;;;;8.33;4.00;;;;;;;;5033598;28;45356;-80
2021/07/12 08:18:46;;;;;;;;;3.00;3.00;;;;;;;;5035247;28;45269;-81
2021/07/12 08:21:12;;;;;;;;;4.67;4.67;;;;;;;;5038637;28;45833;-80
2021/07/12 08:23:39;;;;;;;;;8.00;4.25;;;;;;;;5046942;28;45396;-81
2021/07/12 08:26:04;;;;;;;;;5.00;4.00;;;;;;;;5048372;28;45442;-79
2021/07/12 08:28:30;;;;;;;;;4.00;4.00;;;;;;;;5063786;28;45445;-79
2021/07/12 08:30:55;;;;;;;;;4.00;4.00;;;;;;;;5053420;28;45829;-83
2021/07/12 08:33:21;;;;;;;;;5.00;5.00;;;;;;;;5046396;28;45800;-79
2021/07/12 08:35:47;;;;;;;;;6.00;5.00;;;;;;;;5044829;28;45616;-80
2021/07/12 08:38:13;;;;;;;;;5.00;5.00;;;;;;;;5042445;28;45754;-80
2021/07/12 08:40:38;;;;;;;;;5.25;5.00;;;;;;;;5048911;28;45501;-80
2021/07/12 08:43:03;;;;;;;;;4.67;4.67;;;;;;;;5050020;28;45562;-81
2021/07/12 08:45:29;;;;;;;;;5.00;5.00;;;;;;;;5052082;28;45454;-81
2021/07/12 08:47:54;;;;;;;;;6.50;4.25;;;;;;;;5044013;28;45491;-84
2021/07/12 08:50:21;;;;;;;;;4.00;4.00;;;;;;;;5061583;28;47672;-81
2021/07/12 08:52:47;;;;;;;;;4.50;4.00;;;;;;;;5049848;28;45741;-81
2021/07/12 08:55:13;;;;;;;;;8.00;4.50;;;;;;;;5052352;28;45565;-81
2021/07/12 08:57:38;;;;;;;;;5.25;5.25;;;;;;;;5053062;28;45535;-81
2021/07/12 09:00:05;;;;;;;;;7.00;6.00;;;;;;;;5053160;28;46327;-81
2021/07/12 09:02:31;;;;;;;;;4.00;3.50;;;;;;;;5052383;28;45593;-81
2021/07/12 09:04:56;;;;;;;;;4.75;4.75;;;;;;;;5052575;28;45500;-81
2021/07/12 09:07:22;;;;;;;;;4.67;4.67;;;;;;;;5044916;28;45499;-81
2021/07/12 09:10:04;;;;;;;;;3.50;3.50;;;;;;;;5048775;28;46981;-82
2021/07/12 09:12:50;;;;;;;;;4.25;4.25;;;;;;;;5053472;28;45478;-80
2021/07/12 09:15:16;;;;;;;;;5.00;5.00;;;;;;;;5052732;28;45362;-81
2021/07/12 09:17:43;;;;;;;;;4.00;4.00;;;;;;;;5050928;28;45503;-80
2021/07/12 09:20:10;;;;;;;;;5.50;4.50;;;;;;;;5050648;28;46284;-80
2021/07/12 09:22:36;;;;;;;;;4.00;3.00;;;;;;;;5051822;28;45654;-80
2021/07/12 09:25:04;;;;;;;;;7.00;6.00;;;;;;;;5045974;28;45355;-80
2021/07/12 09:27:32;;;;;;;;;4.25;4.25;;;;;;;;5048415;28;45763;-80
2021/07/12 09:30:21;;;;;;;;;5.00;3.25;;;;;;;;5048623;28;46197;-79
2021/07/12 09:32:48;;;;;;;;;6.00;6.00;;;;;;;;5040832;28;45718;-89
2021/07/12 09:35:14;;;;;;;;;5.00;5.00;;;;;;;;5042638;28;45960;-79
2021/07/12 09:37:40;;;;;;;;;7.00;7.00;;;;;;;;5054998;28;45444;-79
2021/07/12 09:40:07;;;;;;;;;5.00;4.50;;;;;;;;5050660;28;48129;-80
2021/07/12 09:42:32;;;;;;;;;3.50;3.50;;;;;;;;5048208;28;45689;-80
2021/07/12 09:44:57;;;;;;;;;7.25;5.00;;;;;;;;5053263;28;45929;-80
2021/07/12 09:47:24;;;;;;;;;7.00;5.00;;;;;;;;5052729;28;45327;-80
2021/07/12 09:50:08;;;;;;;;;4.75;4.75;;;;;;;;5068436;28;45298;-80
2021/07/12 09:52:39;;;;;;;;;6.25;6.00;;;;;;;;5043956;28;45324;-80
2021/07/12 09:55:05;;;;;;;;;7.25;4.50;;;;;;;;5047472;28;45594;-80
2021/07/12 09:57:30;;;;;;;;;5.00;5.00;;;;;;;;5036624;28;45565;-80
2021/07/12 10:00:00;;;;;;;;;6.00;6.00;;;;;;;;5036855;28;46052;-80
2021/07/12 10:02:27;;;;;;;;;7.50;6.50;;;;;;;;5042502;28;45725;-80
2021/07/12 10:05:09;;;;;;;;;9.00;6.00;;;;;;;;5050842;28;45335;-79
2021/07/12 10:07:35;;;;;;;;;0.00;0.00;;;;;;;;5052547;28;45644;-79
2021/07/12 10:10:01;;;;;;;;;6.00;6.00;;;;;;;;5051046;28;46162;-80
2021/07/12 10:12:27;;;;;;;;;6.75;4.25;;;;;;;;5049273;28;45687;-80
2021/07/12 10:14:53;;;;;;;;;7.00;6.25;;;;;;;;5059558;28;45469;-80
2021/07/12 10:17:18;;;;;;;;;5.75;5.75;;;;;;;;5063642;28;45340;-79
2021/07/12 10:19:45;;;;;;;;;4.00;4.00;;;;;;;;5040177;28;45442;-80
2021/07/12 10:22:11;;;;;;;;;6.50;5.00;;;;;;;;5045114;28;45882;-80
2021/07/12 10:24:39;;;;;;;;;9.50;8.00;;;;;;;;5046622;28;45529;-80
2021/07/12 10:27:05;;;;;;;;;7.00;6.25;;;;;;;;5048321;28;45609;-80
2021/07/12 10:29:31;;;;;;;;;5.50;5.50;;;;;;;;5049400;28;46078;-80
2021/07/12 10:32:02;;;;;;;;;7.25;6.00;;;;;;;;5065699;27;46193;-80
2021/07/12 10:34:30;;;;;;;;;8.00;6.00;;;;;;;;5049531;28;45639;-80
2021/07/12 10:36:59;;;;;;;;;9.75;8.25;;;;;;;;5047094;28;45624;-80
2021/07/12 10:40:04;;;;;;;;;7.25;6.75;;;;;;;;5043541;28;45752;-79
2021/07/12 10:42:41;;;;;;;;;7.50;6.25;;;;;;;;4969560;28;45557;-80
2021/07/12 10:45:13;;;;;;;;;10.50;9.25;;;;;;;;4979243;28;45409;-80
2021/07/12 10:47:48;;;;;;;;;7.00;7.00;;;;;;;;4984067;28;45610;-80
2021/07/12 10:50:32;;;;;;;;;9.00;9.00;;;;;;;;4989804;28;45561;-80
2021/07/12 10:52:58;;;;;;;;;7.00;7.00;;;;;;;;4988231;28;45371;-80
2021/07/12 10:55:30;;;;;;;;;8.25;8.00;;;;;;;;4972917;28;45410;-80
2021/07/12 10:58:13;;;;;;;;;7.00;5.50;;;;;;;;4990730;28;45562;-78
2021/07/12 11:00:39;;;;;;;;;11.00;8.50;;;;;;;;4988834;28;45818;-77
2021/07/12 11:03:04;;;;;;;;;9.00;9.00;;;;;;;;4975376;28;45350;-81
2021/07/12 11:05:48;;;;;;;;;9.00;7.00;;;;;;;;4989173;28;45520;-82
2021/07/12 11:08:33;;;;;;;;;11.50;7.00;;;;;;;;4985527;28;45521;-82
2021/07/12 11:10:58;;;;;;;;;9.75;9.00;;;;;;;;4988803;28;45513;-84
2021/07/12 11:13:44;;;;;;;;;9.50;8.00;;;;;;;;4991666;28;45474;-80
2021/07/12 11:16:16;;;;;;;;;7.25;7.00;;;;;;;;5002717;28;46635;-82
2021/07/12 11:18:41;;;;;;;;;7.50;7.00;;;;;;;;5050082;28;45488;-80
2021/07/12 11:21:10;;;;;;;;;6.75;6.75;;;;;;;;5048535;28;46852;-79
2021/07/12 11:23:39;;;;;;;;;6.50;6.50;;;;;;;;5047569;28;45761;-80
2021/07/12 11:26:20;;;;;;;;;7.00;6.00;;;;;;;;5049605;28;45786;-82
2021/07/12 11:28:46;;;;;;;;;4.75;4.75;;;;;;;;5053721;28;45383;-80
2021/07/12 11:31:30;;;;;;;;;3.75;3.00;;;;;;;;5047549;28;48568;-81
2021/07/12 11:33:57;;;;;;;;;5.00;5.00;;;;;;;;5051963;28;45369;-82
2021/07/12 11:36:23;;;;;;;;;7.00;4.75;;;;;;;;5046754;28;45371;-81
2021/07/12 11:38:48;;;;;;;;;4.50;4.50;;;;;;;;5051239;28;45499;-81
2021/07/12 11:41:13;;;;;;;;;5.00;5.00;;;;;;;;5046679;28;45473;-82
2021/07/12 11:43:38;;;;;;;;;4.75;4.75;;;;;;;;5048511;28;45493;-81
2021/07/12 11:46:03;;;;;;;;;7.33;4.33;;;;;;;;5049588;28;50212;-82
2021/07/12 11:48:29;;;;;;;;;6.00;4.50;;;;;;;;5053101;28;45545;-80
2021/07/12 11:50:54;;;;;;;;;6.00;4.25;;;;;;;;5062433;28;45699;-81
2021/07/12 11:53:19;;;;;;;;;4.25;4.25;;;;;;;;5050792;28;45489;-80
2021/07/12 11:55:46;;;;;;;;;4.00;4.00;;;;;;;;5048781;28;45422;-79
2021/07/12 11:58:11;;;;;;;;;4.00;4.00;;;;;;;;5041906;28;45626;-82
2021/07/12 12:00:38;;;;;;;;;4.00;4.00;;;;;;;;5043813;28;45545;-79
2021/07/12 12:03:05;;;;;;;;;5.00;4.00;;;;;;;;5048458;28;45877;-79
2021/07/12 12:05:34;;;;;;;;;5.00;5.00;;;;;;;;5053870;28;45526;-80
2021/07/12 12:07:59;;;;;;;;;4.25;4.00;;;;;;;;5052478;28;46035;-80
2021/07/12 12:10:25;;;;;;;;;5.00;4.00;;;;;;;;5063416;28;45400;-80
2021/07/12 12:12:55;;;;;;;;;5.50;4.00;;;;;;;;5052180;27;45699;-81
2021/07/12 12:15:27;;;;;;;;;5.75;4.50;;;;;;;;5053643;28;45419;-79
2021/07/12 12:17:57;;;;;;;;;4.25;4.25;;;;;;;;5050920;28;49374;-80
2021/07/12 12:20:27;;;;;;;;;4.00;4.00;;;;;;;;5059512;28;48384;-81
2021/07/12 12:22:56;;;;;;;;;5.00;5.00;;;;;;;;5062135;28;45412;-81
2021/07/12 12:25:22;;;;;;;;;2.50;2.50;;;;;;;;5057302;28;45561;-83
2021/07/12 12:27:48;;;;;;;;;6.50;3.75;;;;;;;;5056232;27;45716;-81
2021/07/12 12:30:13;;;;;;;;;5.00;5.00;;;;;;;;5057651;27;46212;-82
2021/07/12 12:32:39;;;;;;;;;4.50;4.50;;;;;;;;5062787;28;45522;-81
2021/07/12 12:35:05;;;;;;;;;5.33;4.00;;;;;;;;5063091;28;45787;-80
2021/07/12 12:37:33;;;;;;;;;6.75;6.00;;;;;;;;5038243;28;45573;-82
2021/07/12 12:40:19;;;;;;;;;7.00;5.00;;;;;;;;5046029;28;52432;-79
2021/07/12 12:42:46;;;;;;;;;5.00;5.00;;;;;;;;5039898;28;45590;-80
2021/07/12 12:45:11;;;;;;;;;7.00;5.75;;;;;;;;5049152;28;45490;-81
2021/07/12 12:47:37;;;;;;;;;6.75;5.75;;;;;;;;5054213;28;45579;-81
2021/07/12 12:50:15;;;;;;;;;6.67;5.33;;;;;;;;5053345;28;45663;-83
2021/07/12 12:52:40;;;;;;;;;9.25;6.25;;;;;;;;5054914;28;45812;-82
2021/07/12 12:55:10;;;;;;;;;9.00;9.00;;;;;;;;5048835;28;45422;-82
2021/07/12 12:57:36;;;;;;;;;6.00;6.00;;;;;;;;5053042;28;45517;-81
2021/07/12 13:00:10;;;;;;;;;7.00;7.00;;;;;;;;5048530;28;45471;-81
2021/07/12 13:02:43;;;;;;;;;5.75;5.75;;;;;;;;5061732;28;45719;-80
2021/07/12 13:05:13;;;;;;;;;4.00;4.00;;;;;;;;5047992;28;45806;-80
2021/07/12 13:07:43;;;;;;;;;3.25;3.25;;;;;;;;5045042;28;45463;-79
2021/07/12 13:10:09;;;;;;;;;5.00;4.00;;;;;;;;5050242;28;46319;-80
2021/07/12 13:12:39;;;;;;;;;5.00;4.00;;;;;;;;5048209;28;45508;-81
2021/07/12 13:15:07;;;;;;;;;6.50;4.50;;;;;;;;5051389;28;45490;-80
2021/07/12 13:17:35;;;;;;;;;6.00;3.75;;;;;;;;5045329;28;45603;-83
2021/07/12 13:20:09;;;;;;;;;5.75;4.50;;;;;;;;5061675;28;46302;-82
2021/07/12 13:22:35;;;;;;;;;3.00;3.00;;;;;;;;5047265;28;45537;-83
2021/07/12 13:25:06;;;;;;;;;3.00;3.00;;;;;;;;5052226;28;45964;-82
2021/07/12 13:27:34;;;;;;;;;1.00;1.00;;;;;;;;5048043;28;45571;-82
2021/07/12 13:30:00;;;;;;;;;5.75;4.00;;;;;;;;5046545;28;48588;-82
2021/07/12 13:32:25;;;;;;;;;5.25;5.00;;;;;;;;5064413;28;45837;-80
2021/07/12 13:34:54;;;;;;;;;4.25;3.00;;;;;;;;5064865;28;45304;-82
2021/07/12 13:37:20;;;;;;;;;4.25;4.25;;;;;;;;5051890;28;45348;-81
2021/07/12 13:39:45;;;;;;;;;4.50;4.50;;;;;;;;5049748;28;45968;-83
2021/07/12 13:42:10;;;;;;;;;5.00;4.50;;;;;;;;5040150;28;45489;-81
2021/07/12 13:44:36;;;;;;;;;7.00;5.25;;;;;;;;5044233;28;45383;-82
2021/07/12 13:47:01;;;;;;;;;4.67;4.33;;;;;;;;5052935;28;45699;-82
2021/07/12 13:49:26;;;;;;;;;4.50;3.25;;;;;;;;5063341;28;46274;-82
2021/07/12 13:51:51;;;;;;;;;5.00;4.00;;;;;;;;5054332;28;45479;-83
2021/07/12 13:54:17;;;;;;;;;4.00;4.00;;;;;;;;5055198;28;45429;-80
2021/07/12 13:56:42;;;;;;;;;5.75;5.75;;;;;;;;5048932;28;45559;-80
2021/07/12 13:59:07;;;;;;;;;6.00;6.00;;;;;;;;5050300;28;45436;-82
2021/07/12 14:01:32;;;;;;;;;5.00;4.25;;;;;;;;5045018;28;45454;-79
2021/07/12 14:03:58;;;;;;;;;8.33;5.00;;;;;;;;5046116;28;45474;-81
2021/07/12 14:06:23;;;;;;;;;5.00;5.00;;;;;;;;5049098;28;45549;-82
2021/07/12 14:08:48;;;;;;;;;6.00;5.67;;;;;;;;5051723;28;47153;-82
2021/07/12 14:11:13;;;;;;;;;6.00;6.00;;;;;;;;5050966;28;45371;-83
2021/07/12 14:13:38;;;;;;;;;5.00;4.00;;;;;;;;5037723;28;45360;-83
2021/07/12 14:16:05;;;;;;;;;8.67;5.67;;;;;;;;5040582;28;45435;-82
2021/07/12 14:18:31;;;;;;;;;7.25;5.50;;;;;;;;5055885;28;47600;-83
2021/07/12 14:20:56;;;;;;;;;5.33;5.33;;;;;;;;5060572;28;45748;-83
2021/07/12 14:23:21;;;;;;;;;6.33;5.00;;;;;;;;5055029;28;45285;-81
2021/07/12 14:25:46;;;;;;;;;6.00;5.00;;;;;;;;5050132;28;45387;-82
2021/07/12 14:28:12;;;;;;;;;4.50;4.50;;;;;;;;5043074;28;45860;-82
2021/07/12 14:30:37;;;;;;;;;6.25;5.50;;;;;;;;5050556;28;45470;-81
2021/07/12 14:33:02;;;;;;;;;4.67;4.67;;;;;;;;5046782;28;45555;-83
2021/07/12 14:35:28;;;;;;;;;6.50;5.00;;;;;;;;5047986;28;45650;-81
2021/07/12 14:37:53;;;;;;;;;5.00;5.00;;;;;;;;5049671;28;46312;-84
2021/07/12 14:40:18;;;;;;;;;5.67;5.67;;;;;;;;5054170;28;45347;-82
2021/07/12 14:42:43;;;;;;;;;3.00;3.00;;;;;;;;5051185;27;45402;-82
2021/07/12 14:45:09;;;;;;;;;6.50;5.75;;;;;;;;5059447;27;45541;-83